sensor_id;sensor_type;location;lat;lon;timestamp;P1;durP1;ratioP1;P2;durP2;ratioP2
4698;SDS011;33708;49.466;11.176;2022-07-06T00:01:54;8.50;;;2.63;;
4698;SDS011;33708;49.466;11.176;2022-07-06T00:04:20;6.30;;;2.40;;
4698;SDS011;33708;49.466;11.176;2022-07-06T00:06:46;9.20;;;2.30;;
4698;SDS011;33708;49.466;11.176;2022-07-06T00:09:11;6.07;;;2.83;;
4698;SDS011;33708;49.466;11.176;2022-07-06T00:11:37;9.80;;;2.67;;
4698;SDS011;33708;49.466;11.176;2022-07-06T00:14:03;5.97;;;2.53;;
4698;SDS011;33708;49.466;11.176;2022-07-06T00:16:29;8.60;;;2.93;;
4698;SDS011;33708;49.466;11.176;2022-07-06T00:18:55;5.57;;;2.23;;
4698;SDS011;33708;49.466;11.176;2022-07-06T00:21:21;13.07;;;3.13;;
4698;SDS011;33708;49.466;11.176;2022-07-06T00:23:46;7.63;;;3.10;;
4698;SDS011;33708;49.466;11.176;2022-07-06T00:26:16;9.23;;;2.83;;
4698;SDS011;33708;49.466;11.176;2022-07-06T00:28:43;10.80;;;2.97;;
4698;SDS011;33708;49.466;11.176;2022-07-06T00:31:08;8.83;;;3.20;;
4698;SDS011;33708;49.466;11.176;2022-07-06T00:33:34;7.57;;;2.63;;
4698;SDS011;33708;49.466;11.176;2022-07-06T00:35:59;10.80;;;2.77;;
4698;SDS011;33708;49.466;11.176;2022-07-06T00:38:25;7.27;;;3.03;;
4698;SDS011;33708;49.466;11.176;2022-07-06T00:40:51;9.43;;;2.90;;
4698;SDS011;33708;49.466;11.176;2022-07-06T00:43:16;7.00;;;2.67;;
4698;SDS011;33708;49.466;11.176;2022-07-06T00:45:42;12.77;;;3.23;;
4698;SDS011;33708;49.466;11.176;2022-07-06T00:48:08;7.47;;;2.83;;
4698;SDS011;33708;49.466;11.176;2022-07-06T00:50:34;7.67;;;2.93;;
4698;SDS011;33708;49.466;11.176;2022-07-06T00:53:01;6.97;;;2.90;;
4698;SDS011;33708;49.466;11.176;2022-07-06T00:55:30;8.47;;;3.43;;
4698;SDS011;33708;49.466;11.176;2022-07-06T00:57:57;7.63;;;2.70;;
4698;SDS011;33708;49.466;11.176;2022-07-06T01:00:26;9.60;;;2.80;;
4698;SDS011;33708;49.466;11.176;2022-07-06T01:02:53;11.03;;;3.07;;
4698;SDS011;33708;49.466;11.176;2022-07-06T01:05:19;8.00;;;3.50;;
4698;SDS011;33708;49.466;11.176;2022-07-06T01:07:47;6.53;;;3.03;;
4698;SDS011;33708;49.466;11.176;2022-07-06T01:10:15;6.80;;;3.10;;
4698;SDS011;33708;49.466;11.176;2022-07-06T01:12:42;8.30;;;3.60;;
4698;SDS011;33708;49.466;11.176;2022-07-06T01:15:18;7.80;;;3.33;;
4698;SDS011;33708;49.466;11.176;2022-07-06T01:17:46;7.13;;;3.27;;
4698;SDS011;33708;49.466;11.176;2022-07-06T01:20:16;6.20;;;2.97;;
4698;SDS011;33708;49.466;11.176;2022-07-06T01:22:46;9.43;;;3.20;;
4698;SDS011;33708;49.466;11.176;2022-07-06T01:25:13;6.10;;;2.73;;
4698;SDS011;33708;49.466;11.176;2022-07-06T01:27:39;9.83;;;3.50;;
4698;SDS011;33708;49.466;11.176;2022-07-06T01:30:07;9.93;;;3.40;;
4698;SDS011;33708;49.466;11.176;2022-07-06T01:32:34;9.07;;;3.60;;
4698;SDS011;33708;49.466;11.176;2022-07-06T01:35:00;15.23;;;3.80;;
4698;SDS011;33708;49.466;11.176;2022-07-06T01:37:27;7.77;;;3.30;;
4698;SDS011;33708;49.466;11.176;2022-07-06T01:39:52;8.03;;;3.33;;
4698;SDS011;33708;49.466;11.176;2022-07-06T01:42:18;7.87;;;3.60;;
4698;SDS011;33708;49.466;11.176;2022-07-06T01:44:44;7.80;;;3.50;;
4698;SDS011;33708;49.466;11.176;2022-07-06T01:47:10;7.77;;;3.90;;
4698;SDS011;33708;49.466;11.176;2022-07-06T01:49:36;8.27;;;3.70;;
4698;SDS011;33708;49.466;11.176;2022-07-06T01:52:02;9.40;;;3.57;;
4698;SDS011;33708;49.466;11.176;2022-07-06T01:54:28;14.40;;;3.50;;
4698;SDS011;33708;49.466;11.176;2022-07-06T01:56:54;8.97;;;3.60;;
4698;SDS011;33708;49.466;11.176;2022-07-06T01:59:19;10.47;;;3.60;;
4698;SDS011;33708;49.466;11.176;2022-07-06T02:01:45;7.57;;;3.33;;
4698;SDS011;33708;49.466;11.176;2022-07-06T02:04:11;6.70;;;3.50;;
4698;SDS011;33708;49.466;11.176;2022-07-06T02:06:36;7.80;;;4.00;;
4698;SDS011;33708;49.466;11.176;2022-07-06T02:09:02;10.53;;;3.00;;
4698;SDS011;33708;49.466;11.176;2022-07-06T02:11:28;6.90;;;3.27;;
4698;SDS011;33708;49.466;11.176;2022-07-06T02:13:53;18.30;;;3.37;;
4698;SDS011;33708;49.466;11.176;2022-07-06T02:16:19;7.77;;;3.27;;
4698;SDS011;33708;49.466;11.176;2022-07-06T02:18:44;7.23;;;3.53;;
4698;SDS011;33708;49.466;11.176;2022-07-06T02:21:10;11.50;;;3.73;;
4698;SDS011;33708;49.466;11.176;2022-07-06T02:23:36;7.03;;;3.60;;
4698;SDS011;33708;49.466;11.176;2022-07-06T02:26:01;14.80;;;4.30;;
4698;SDS011;33708;49.466;11.176;2022-07-06T02:28:28;6.30;;;3.30;;
4698;SDS011;33708;49.466;11.176;2022-07-06T02:30:54;8.93;;;3.43;;
4698;SDS011;33708;49.466;11.176;2022-07-06T02:33:20;11.27;;;4.07;;
4698;SDS011;33708;49.466;11.176;2022-07-06T02:35:45;9.53;;;3.40;;
4698;SDS011;33708;49.466;11.176;2022-07-06T02:38:11;10.30;;;4.50;;
4698;SDS011;33708;49.466;11.176;2022-07-06T02:40:37;7.90;;;4.03;;
4698;SDS011;33708;49.466;11.176;2022-07-06T02:43:03;8.00;;;3.57;;
4698;SDS011;33708;49.466;11.176;2022-07-06T02:45:29;8.00;;;3.80;;
4698;SDS011;33708;49.466;11.176;2022-07-06T02:47:55;13.00;;;3.90;;
4698;SDS011;33708;49.466;11.176;2022-07-06T02:50:22;6.60;;;3.20;;
4698;SDS011;33708;49.466;11.176;2022-07-06T02:52:48;12.17;;;3.63;;
4698;SDS011;33708;49.466;11.176;2022-07-06T02:55:14;7.07;;;3.80;;
4698;SDS011;33708;49.466;11.176;2022-07-06T02:57:39;8.40;;;3.80;;
4698;SDS011;33708;49.466;11.176;2022-07-06T03:00:05;14.33;;;4.10;;
4698;SDS011;33708;49.466;11.176;2022-07-06T03:02:31;8.97;;;3.40;;
4698;SDS011;33708;49.466;11.176;2022-07-06T03:04:57;12.10;;;4.70;;
4698;SDS011;33708;49.466;11.176;2022-07-06T03:07:23;8.27;;;4.00;;
4698;SDS011;33708;49.466;11.176;2022-07-06T03:09:48;11.93;;;4.03;;
4698;SDS011;33708;49.466;11.176;2022-07-06T03:12:15;12.30;;;4.20;;
4698;SDS011;33708;49.466;11.176;2022-07-06T03:14:41;9.83;;;4.00;;
4698;SDS011;33708;49.466;11.176;2022-07-06T03:17:08;10.43;;;3.80;;
4698;SDS011;33708;49.466;11.176;2022-07-06T03:19:34;7.23;;;4.17;;
4698;SDS011;33708;49.466;11.176;2022-07-06T03:21:59;7.37;;;3.80;;
4698;SDS011;33708;49.466;11.176;2022-07-06T03:24:25;8.40;;;4.20;;
4698;SDS011;33708;49.466;11.176;2022-07-06T03:26:50;10.63;;;4.27;;
4698;SDS011;33708;49.466;11.176;2022-07-06T03:29:16;10.23;;;3.73;;
4698;SDS011;33708;49.466;11.176;2022-07-06T03:31:42;8.27;;;4.20;;
4698;SDS011;33708;49.466;11.176;2022-07-06T03:34:07;7.40;;;3.57;;
4698;SDS011;33708;49.466;11.176;2022-07-06T03:36:33;8.20;;;3.67;;
4698;SDS011;33708;49.466;11.176;2022-07-06T03:38:59;8.43;;;4.20;;
4698;SDS011;33708;49.466;11.176;2022-07-06T03:41:24;9.30;;;4.57;;
4698;SDS011;33708;49.466;11.176;2022-07-06T03:43:50;9.23;;;4.10;;
4698;SDS011;33708;49.466;11.176;2022-07-06T03:46:16;9.37;;;3.70;;
4698;SDS011;33708;49.466;11.176;2022-07-06T03:48:41;9.60;;;4.30;;
4698;SDS011;33708;49.466;11.176;2022-07-06T03:51:07;8.63;;;3.73;;
4698;SDS011;33708;49.466;11.176;2022-07-06T03:53:33;7.93;;;4.00;;
4698;SDS011;33708;49.466;11.176;2022-07-06T03:55:58;8.50;;;3.60;;
4698;SDS011;33708;49.466;11.176;2022-07-06T03:58:43;8.93;;;4.50;;
4698;SDS011;33708;49.466;11.176;2022-07-06T04:01:08;8.10;;;3.77;;
4698;SDS011;33708;49.466;11.176;2022-07-06T04:03:34;8.20;;;4.43;;
4698;SDS011;33708;49.466;11.176;2022-07-06T04:05:59;23.40;;;19.30;;
4698;SDS011;33708;49.466;11.176;2022-07-06T04:08:25;17.37;;;15.70;;
4698;SDS011;33708;49.466;11.176;2022-07-06T04:10:51;12.17;;;9.60;;
4698;SDS011;33708;49.466;11.176;2022-07-06T04:13:16;11.87;;;3.90;;
4698;SDS011;33708;49.466;11.176;2022-07-06T04:15:42;10.37;;;3.70;;
4698;SDS011;33708;49.466;11.176;2022-07-06T04:18:08;7.83;;;3.67;;
4698;SDS011;33708;49.466;11.176;2022-07-06T04:20:33;7.40;;;3.63;;
4698;SDS011;33708;49.466;11.176;2022-07-06T04:22:59;7.80;;;4.90;;
4698;SDS011;33708;49.466;11.176;2022-07-06T04:25:25;7.80;;;4.55;;
4698;SDS011;33708;49.466;11.176;2022-07-06T04:27:51;7.13;;;3.60;;
4698;SDS011;33708;49.466;11.176;2022-07-06T04:30:17;7.40;;;3.47;;
4698;SDS011;33708;49.466;11.176;2022-07-06T04:32:42;9.10;;;4.23;;
4698;SDS011;33708;49.466;11.176;2022-07-06T04:35:08;7.97;;;3.33;;
4698;SDS011;33708;49.466;11.176;2022-07-06T04:37:34;7.80;;;3.80;;
4698;SDS011;33708;49.466;11.176;2022-07-06T04:40:00;10.80;;;3.53;;
4698;SDS011;33708;49.466;11.176;2022-07-06T04:42:25;17.57;;;3.47;;
4698;SDS011;33708;49.466;11.176;2022-07-06T04:44:51;7.03;;;3.07;;
4698;SDS011;33708;49.466;11.176;2022-07-06T04:47:17;8.30;;;3.30;;
4698;SDS011;33708;49.466;11.176;2022-07-06T04:49:42;8.87;;;2.63;;
4698;SDS011;33708;49.466;11.176;2022-07-06T04:52:08;6.93;;;3.00;;
4698;SDS011;33708;49.466;11.176;2022-07-06T04:54:34;7.27;;;3.60;;
4698;SDS011;33708;49.466;11.176;2022-07-06T04:56:59;23.93;;;3.83;;
4698;SDS011;33708;49.466;11.176;2022-07-06T04:59:25;13.20;;;3.50;;
4698;SDS011;33708;49.466;11.176;2022-07-06T05:01:51;9.50;;;3.77;;
4698;SDS011;33708;49.466;11.176;2022-07-06T05:04:16;6.80;;;3.20;;
4698;SDS011;33708;49.466;11.176;2022-07-06T05:06:45;9.30;;;3.50;;
4698;SDS011;33708;49.466;11.176;2022-07-06T05:09:14;13.10;;;3.60;;
4698;SDS011;33708;49.466;11.176;2022-07-06T05:11:40;7.70;;;3.23;;
4698;SDS011;33708;49.466;11.176;2022-07-06T05:14:06;7.80;;;3.37;;
4698;SDS011;33708;49.466;11.176;2022-07-06T05:16:32;10.57;;;3.10;;
4698;SDS011;33708;49.466;11.176;2022-07-06T05:18:57;20.03;;;3.63;;
4698;SDS011;33708;49.466;11.176;2022-07-06T05:21:23;6.33;;;2.70;;
4698;SDS011;33708;49.466;11.176;2022-07-06T05:23:49;7.77;;;2.93;;
4698;SDS011;33708;49.466;11.176;2022-07-06T05:26:15;10.90;;;3.03;;
4698;SDS011;33708;49.466;11.176;2022-07-06T05:28:41;7.37;;;2.43;;
4698;SDS011;33708;49.466;11.176;2022-07-06T05:31:06;8.60;;;3.00;;
4698;SDS011;33708;49.466;11.176;2022-07-06T05:33:32;8.43;;;2.73;;
4698;SDS011;33708;49.466;11.176;2022-07-06T05:35:58;5.73;;;2.50;;
4698;SDS011;33708;49.466;11.176;2022-07-06T05:38:23;6.63;;;2.70;;
4698;SDS011;33708;49.466;11.176;2022-07-06T05:40:50;8.13;;;2.80;;
4698;SDS011;33708;49.466;11.176;2022-07-06T05:46:37;8.30;;;2.83;;
4698;SDS011;33708;49.466;11.176;2022-07-06T05:49:03;7.93;;;2.50;;
4698;SDS011;33708;49.466;11.176;2022-07-06T05:51:47;6.57;;;2.50;;
4698;SDS011;33708;49.466;11.176;2022-07-06T05:54:14;12.03;;;2.80;;
4698;SDS011;33708;49.466;11.176;2022-07-06T05:56:40;10.83;;;2.83;;
4698;SDS011;33708;49.466;11.176;2022-07-06T05:59:05;9.03;;;2.90;;
4698;SDS011;33708;49.466;11.176;2022-07-06T06:01:31;8.00;;;2.50;;
4698;SDS011;33708;49.466;11.176;2022-07-06T06:03:57;8.00;;;2.27;;
4698;SDS011;33708;49.466;11.176;2022-07-06T06:06:27;7.30;;;2.40;;
4698;SDS011;33708;49.466;11.176;2022-07-06T06:08:53;8.70;;;2.30;;
4698;SDS011;33708;49.466;11.176;2022-07-06T06:11:18;8.10;;;2.30;;
4698;SDS011;33708;49.466;11.176;2022-07-06T06:13:44;7.03;;;2.43;;
4698;SDS011;33708;49.466;11.176;2022-07-06T06:16:09;9.23;;;2.27;;
4698;SDS011;33708;49.466;11.176;2022-07-06T06:18:35;8.90;;;2.10;;
4698;SDS011;33708;49.466;11.176;2022-07-06T06:21:01;7.87;;;1.90;;
4698;SDS011;33708;49.466;11.176;2022-07-06T06:23:26;9.73;;;2.03;;
4698;SDS011;33708;49.466;11.176;2022-07-06T06:25:52;9.40;;;2.37;;
4698;SDS011;33708;49.466;11.176;2022-07-06T06:28:18;7.23;;;2.20;;
4698;SDS011;33708;49.466;11.176;2022-07-06T06:30:43;8.60;;;2.77;;
4698;SDS011;33708;49.466;11.176;2022-07-06T06:33:16;10.63;;;2.20;;
4698;SDS011;33708;49.466;11.176;2022-07-06T06:35:44;8.00;;;1.80;;
4698;SDS011;33708;49.466;11.176;2022-07-06T06:38:11;7.53;;;2.60;;
4698;SDS011;33708;49.466;11.176;2022-07-06T06:40:37;6.35;;;2.00;;
4698;SDS011;33708;49.466;11.176;2022-07-06T06:43:03;7.30;;;2.20;;
4698;SDS011;33708;49.466;11.176;2022-07-06T06:45:29;7.83;;;2.20;;
4698;SDS011;33708;49.466;11.176;2022-07-06T06:47:55;8.07;;;2.00;;
4698;SDS011;33708;49.466;11.176;2022-07-06T06:50:20;10.50;;;1.63;;
4698;SDS011;33708;49.466;11.176;2022-07-06T06:52:48;4.87;;;1.80;;
4698;SDS011;33708;49.466;11.176;2022-07-06T06:55:14;12.07;;;1.73;;
4698;SDS011;33708;49.466;11.176;2022-07-06T06:57:40;6.57;;;1.73;;
4698;SDS011;33708;49.466;11.176;2022-07-06T07:00:06;11.40;;;1.87;;
4698;SDS011;33708;49.466;11.176;2022-07-06T07:02:32;5.30;;;1.50;;
4698;SDS011;33708;49.466;11.176;2022-07-06T07:04:58;11.40;;;2.10;;
4698;SDS011;33708;49.466;11.176;2022-07-06T07:07:24;5.27;;;1.63;;
4698;SDS011;33708;49.466;11.176;2022-07-06T07:09:49;7.73;;;2.00;;
4698;SDS011;33708;49.466;11.176;2022-07-06T07:12:15;8.80;;;1.60;;
4698;SDS011;33708;49.466;11.176;2022-07-06T07:14:42;8.80;;;1.70;;
4698;SDS011;33708;49.466;11.176;2022-07-06T07:17:10;7.03;;;1.90;;
4698;SDS011;33708;49.466;11.176;2022-07-06T07:19:36;5.47;;;1.70;;
4698;SDS011;33708;49.466;11.176;2022-07-06T07:22:03;5.80;;;1.87;;
4698;SDS011;33708;49.466;11.176;2022-07-06T07:24:28;6.10;;;1.90;;
4698;SDS011;33708;49.466;11.176;2022-07-06T07:26:54;9.70;;;2.27;;
4698;SDS011;33708;49.466;11.176;2022-07-06T07:29:20;6.13;;;1.47;;
4698;SDS011;33708;49.466;11.176;2022-07-06T07:31:46;8.40;;;1.73;;
4698;SDS011;33708;49.466;11.176;2022-07-06T07:34:12;7.00;;;2.20;;
4698;SDS011;33708;49.466;11.176;2022-07-06T07:36:38;6.53;;;1.73;;
4698;SDS011;33708;49.466;11.176;2022-07-06T07:39:03;5.70;;;1.63;;
4698;SDS011;33708;49.466;11.176;2022-07-06T07:41:29;5.70;;;1.67;;
4698;SDS011;33708;49.466;11.176;2022-07-06T07:43:55;7.40;;;1.67;;
4698;SDS011;33708;49.466;11.176;2022-07-06T07:46:21;7.63;;;1.47;;
4698;SDS011;33708;49.466;11.176;2022-07-06T07:48:47;8.50;;;1.67;;
4698;SDS011;33708;49.466;11.176;2022-07-06T07:51:12;5.07;;;1.50;;
4698;SDS011;33708;49.466;11.176;2022-07-06T07:53:38;12.63;;;1.60;;
4698;SDS011;33708;49.466;11.176;2022-07-06T07:56:04;5.30;;;1.40;;
4698;SDS011;33708;49.466;11.176;2022-07-06T07:58:29;10.40;;;1.77;;
4698;SDS011;33708;49.466;11.176;2022-07-06T08:00:55;8.57;;;1.83;;
4698;SDS011;33708;49.466;11.176;2022-07-06T08:03:21;7.67;;;2.50;;
4698;SDS011;33708;49.466;11.176;2022-07-06T08:05:46;7.13;;;1.60;;
4698;SDS011;33708;49.466;11.176;2022-07-06T08:08:13;7.73;;;1.67;;
4698;SDS011;33708;49.466;11.176;2022-07-06T08:10:39;6.57;;;1.83;;
4698;SDS011;33708;49.466;11.176;2022-07-06T08:13:05;7.23;;;1.93;;
4698;SDS011;33708;49.466;11.176;2022-07-06T08:15:32;7.40;;;2.10;;
4698;SDS011;33708;49.466;11.176;2022-07-06T08:17:58;7.93;;;1.87;;
4698;SDS011;33708;49.466;11.176;2022-07-06T08:20:24;6.77;;;1.67;;
4698;SDS011;33708;49.466;11.176;2022-07-06T08:22:50;9.20;;;1.97;;
4698;SDS011;33708;49.466;11.176;2022-07-06T08:25:16;6.53;;;1.73;;
4698;SDS011;33708;49.466;11.176;2022-07-06T08:27:42;10.77;;;2.03;;
4698;SDS011;33708;49.466;11.176;2022-07-06T08:30:08;6.97;;;1.67;;
4698;SDS011;33708;49.466;11.176;2022-07-06T08:32:38;12.47;;;1.67;;
4698;SDS011;33708;49.466;11.176;2022-07-06T08:35:05;6.50;;;2.13;;
4698;SDS011;33708;49.466;11.176;2022-07-06T08:37:31;5.72;;;1.90;;
4698;SDS011;33708;49.466;11.176;2022-07-06T08:39:57;5.97;;;2.00;;
4698;SDS011;33708;49.466;11.176;2022-07-06T08:42:23;7.50;;;2.33;;
4698;SDS011;33708;49.466;11.176;2022-07-06T08:44:55;9.00;;;2.30;;
4698;SDS011;33708;49.466;11.176;2022-07-06T08:47:28;13.20;;;1.90;;
4698;SDS011;33708;49.466;11.176;2022-07-06T08:49:55;5.97;;;2.00;;
4698;SDS011;33708;49.466;11.176;2022-07-06T08:52:22;8.20;;;2.00;;
4698;SDS011;33708;49.466;11.176;2022-07-06T08:54:51;8.63;;;1.50;;
4698;SDS011;33708;49.466;11.176;2022-07-06T08:57:17;5.70;;;2.20;;
4698;SDS011;33708;49.466;11.176;2022-07-06T08:59:43;9.87;;;2.20;;
4698;SDS011;33708;49.466;11.176;2022-07-06T09:02:09;6.93;;;1.80;;
4698;SDS011;33708;49.466;11.176;2022-07-06T09:04:35;7.80;;;1.70;;
4698;SDS011;33708;49.466;11.176;2022-07-06T09:07:02;5.63;;;2.10;;
4698;SDS011;33708;49.466;11.176;2022-07-06T09:09:28;9.40;;;2.10;;
4698;SDS011;33708;49.466;11.176;2022-07-06T09:11:57;11.70;;;2.08;;
4698;SDS011;33708;49.466;11.176;2022-07-06T09:14:24;7.53;;;1.63;;
4698;SDS011;33708;49.466;11.176;2022-07-06T09:17:08;10.20;;;1.90;;
4698;SDS011;33708;49.466;11.176;2022-07-06T09:19:34;7.53;;;1.97;;
4698;SDS011;33708;49.466;11.176;2022-07-06T09:22:01;5.85;;;1.63;;
4698;SDS011;33708;49.466;11.176;2022-07-06T09:24:27;9.67;;;2.10;;
4698;SDS011;33708;49.466;11.176;2022-07-06T09:26:57;9.23;;;2.17;;
4698;SDS011;33708;49.466;11.176;2022-07-06T09:29:30;8.63;;;1.60;;
4698;SDS011;33708;49.466;11.176;2022-07-06T09:31:58;11.33;;;2.00;;
4698;SDS011;33708;49.466;11.176;2022-07-06T09:34:25;6.53;;;2.27;;
4698;SDS011;33708;49.466;11.176;2022-07-06T09:37:06;7.72;;;2.20;;
4698;SDS011;33708;49.466;11.176;2022-07-06T09:39:31;6.97;;;2.00;;
4698;SDS011;33708;49.466;11.176;2022-07-06T09:42:02;8.00;;;1.93;;
4698;SDS011;33708;49.466;11.176;2022-07-06T09:44:33;8.43;;;2.17;;
4698;SDS011;33708;49.466;11.176;2022-07-06T09:47:02;10.70;;;1.77;;
4698;SDS011;33708;49.466;11.176;2022-07-06T09:49:30;7.40;;;1.60;;
4698;SDS011;33708;49.466;11.176;2022-07-06T09:51:57;6.67;;;1.97;;
4698;SDS011;33708;49.466;11.176;2022-07-06T09:54:24;7.47;;;1.80;;
4698;SDS011;33708;49.466;11.176;2022-07-06T09:56:50;5.80;;;1.50;;
4698;SDS011;33708;49.466;11.176;2022-07-06T09:59:21;11.63;;;2.13;;
4698;SDS011;33708;49.466;11.176;2022-07-06T10:01:51;5.73;;;1.70;;
4698;SDS011;33708;49.466;11.176;2022-07-06T10:04:19;7.57;;;1.97;;
4698;SDS011;33708;49.466;11.176;2022-07-06T10:06:45;10.30;;;1.87;;
4698;SDS011;33708;49.466;11.176;2022-07-06T10:09:11;5.80;;;1.80;;
4698;SDS011;33708;49.466;11.176;2022-07-06T10:11:39;9.80;;;1.90;;
4698;SDS011;33708;49.466;11.176;2022-07-06T10:14:10;9.60;;;1.60;;
4698;SDS011;33708;49.466;11.176;2022-07-06T10:16:37;10.43;;;2.13;;
4698;SDS011;33708;49.466;11.176;2022-07-06T10:19:07;10.37;;;2.00;;
4698;SDS011;33708;49.466;11.176;2022-07-06T10:21:35;16.70;;;1.90;;
4698;SDS011;33708;49.466;11.176;2022-07-06T10:24:02;8.03;;;1.77;;
4698;SDS011;33708;49.466;11.176;2022-07-06T10:26:32;7.63;;;1.97;;
4698;SDS011;33708;49.466;11.176;2022-07-06T10:28:59;7.80;;;1.90;;
4698;SDS011;33708;49.466;11.176;2022-07-06T10:31:26;15.07;;;1.67;;
4698;SDS011;33708;49.466;11.176;2022-07-06T10:34:02;5.90;;;1.60;;
4698;SDS011;33708;49.466;11.176;2022-07-06T10:36:30;13.20;;;1.70;;
4698;SDS011;33708;49.466;11.176;2022-07-06T10:38:56;6.33;;;1.87;;
4698;SDS011;33708;49.466;11.176;2022-07-06T10:41:31;5.83;;;2.00;;
4698;SDS011;33708;49.466;11.176;2022-07-06T10:46:53;7.77;;;1.70;;
4698;SDS011;33708;49.466;11.176;2022-07-06T10:49:20;7.70;;;1.93;;
4698;SDS011;33708;49.466;11.176;2022-07-06T10:51:47;7.53;;;1.97;;
4698;SDS011;33708;49.466;11.176;2022-07-06T10:54:14;6.53;;;1.73;;
4698;SDS011;33708;49.466;11.176;2022-07-06T10:56:51;8.70;;;1.80;;
4698;SDS011;33708;49.466;11.176;2022-07-06T10:59:17;10.93;;;2.10;;
4698;SDS011;33708;49.466;11.176;2022-07-06T11:02:11;7.63;;;1.83;;
4698;SDS011;33708;49.466;11.176;2022-07-06T11:04:36;8.03;;;2.07;;
4698;SDS011;33708;49.466;11.176;2022-07-06T11:07:13;8.20;;;2.30;;
4698;SDS011;33708;49.466;11.176;2022-07-06T11:09:40;13.20;;;2.10;;
4698;SDS011;33708;49.466;11.176;2022-07-06T11:12:21;11.27;;;2.00;;
4698;SDS011;33708;49.466;11.176;2022-07-06T11:14:48;6.20;;;1.90;;
4698;SDS011;33708;49.466;11.176;2022-07-06T11:17:16;13.27;;;1.60;;
4698;SDS011;33708;49.466;11.176;2022-07-06T11:19:49;9.77;;;2.10;;
4698;SDS011;33708;49.466;11.176;2022-07-06T11:22:16;6.30;;;1.87;;
4698;SDS011;33708;49.466;11.176;2022-07-06T11:24:43;14.40;;;2.30;;
4698;SDS011;33708;49.466;11.176;2022-07-06T11:27:09;12.23;;;1.90;;
4698;SDS011;33708;49.466;11.176;2022-07-06T11:29:35;14.13;;;2.00;;
4698;SDS011;33708;49.466;11.176;2022-07-06T11:32:04;6.93;;;1.80;;
4698;SDS011;33708;49.466;11.176;2022-07-06T11:34:35;6.20;;;1.83;;
4698;SDS011;33708;49.466;11.176;2022-07-06T11:37:10;6.53;;;1.60;;
4698;SDS011;33708;49.466;11.176;2022-07-06T11:39:40;15.17;;;1.67;;
4698;SDS011;33708;49.466;11.176;2022-07-06T11:42:11;9.30;;;1.93;;
4698;SDS011;33708;49.466;11.176;2022-07-06T11:44:39;10.10;;;1.73;;
4698;SDS011;33708;49.466;11.176;2022-07-06T11:47:06;13.03;;;1.57;;
4698;SDS011;33708;49.466;11.176;2022-07-06T11:49:32;7.57;;;1.73;;
4698;SDS011;33708;49.466;11.176;2022-07-06T11:51:59;9.43;;;1.57;;
4698;SDS011;33708;49.466;11.176;2022-07-06T11:54:29;8.40;;;1.57;;
4698;SDS011;33708;49.466;11.176;2022-07-06T11:56:57;6.10;;;1.70;;
4698;SDS011;33708;49.466;11.176;2022-07-06T12:02:01;5.50;;;1.40;;
4698;SDS011;33708;49.466;11.176;2022-07-06T12:04:29;6.13;;;1.60;;
4698;SDS011;33708;49.466;11.176;2022-07-06T12:06:59;7.20;;;1.60;;
4698;SDS011;33708;49.466;11.176;2022-07-06T12:09:31;7.43;;;1.73;;
4698;SDS011;33708;49.466;11.176;2022-07-06T12:11:59;7.53;;;1.70;;
4698;SDS011;33708;49.466;11.176;2022-07-06T12:14:27;7.40;;;1.40;;
4698;SDS011;33708;49.466;11.176;2022-07-06T12:16:54;5.70;;;1.40;;
4698;SDS011;33708;49.466;11.176;2022-07-06T12:19:23;7.77;;;1.67;;
4698;SDS011;33708;49.466;11.176;2022-07-06T12:21:49;11.17;;;1.70;;
4698;SDS011;33708;49.466;11.176;2022-07-06T12:24:17;6.13;;;1.67;;
4698;SDS011;33708;49.466;11.176;2022-07-06T12:26:43;9.17;;;1.67;;
4698;SDS011;33708;49.466;11.176;2022-07-06T12:29:09;10.33;;;2.13;;
4698;SDS011;33708;49.466;11.176;2022-07-06T12:31:50;5.90;;;1.60;;
4698;SDS011;33708;49.466;11.176;2022-07-06T12:36:46;7.07;;;1.70;;
4698;SDS011;33708;49.466;11.176;2022-07-06T12:39:16;7.53;;;2.00;;
4698;SDS011;33708;49.466;11.176;2022-07-06T12:41:47;12.57;;;1.50;;
4698;SDS011;33708;49.466;11.176;2022-07-06T12:44:15;8.30;;;1.80;;
4698;SDS011;33708;49.466;11.176;2022-07-06T12:46:45;7.37;;;1.57;;
4698;SDS011;33708;49.466;11.176;2022-07-06T12:49:22;13.57;;;1.73;;
4698;SDS011;33708;49.466;11.176;2022-07-06T12:51:58;10.97;;;1.50;;
4698;SDS011;33708;49.466;11.176;2022-07-06T12:57:11;6.80;;;1.40;;
4698;SDS011;33708;49.466;11.176;2022-07-06T12:59:41;6.10;;;1.33;;
4698;SDS011;33708;49.466;11.176;2022-07-06T13:02:09;5.93;;;1.50;;
4698;SDS011;33708;49.466;11.176;2022-07-06T13:04:42;10.33;;;1.43;;
4698;SDS011;33708;49.466;11.176;2022-07-06T13:07:14;6.60;;;1.50;;
4698;SDS011;33708;49.466;11.176;2022-07-06T13:09:44;11.10;;;1.53;;
4698;SDS011;33708;49.466;11.176;2022-07-06T13:12:10;5.80;;;1.57;;
4698;SDS011;33708;49.466;11.176;2022-07-06T13:14:36;6.67;;;1.30;;
4698;SDS011;33708;49.466;11.176;2022-07-06T13:17:04;7.37;;;1.40;;
4698;SDS011;33708;49.466;11.176;2022-07-06T13:19:29;9.93;;;1.83;;
4698;SDS011;33708;49.466;11.176;2022-07-06T13:21:55;5.10;;;1.33;;
4698;SDS011;33708;49.466;11.176;2022-07-06T13:24:21;9.60;;;1.93;;
4698;SDS011;33708;49.466;11.176;2022-07-06T13:26:46;6.50;;;1.60;;
4698;SDS011;33708;49.466;11.176;2022-07-06T13:29:12;9.83;;;1.60;;
4698;SDS011;33708;49.466;11.176;2022-07-06T13:31:38;6.13;;;1.47;;
4698;SDS011;33708;49.466;11.176;2022-07-06T13:34:05;4.70;;;1.60;;
4698;SDS011;33708;49.466;11.176;2022-07-06T13:36:34;10.20;;;1.80;;
4698;SDS011;33708;49.466;11.176;2022-07-06T13:39:01;7.23;;;1.20;;
4698;SDS011;33708;49.466;11.176;2022-07-06T13:41:27;8.13;;;1.40;;
4698;SDS011;33708;49.466;11.176;2022-07-06T13:43:53;9.17;;;1.20;;
4698;SDS011;33708;49.466;11.176;2022-07-06T13:46:19;9.07;;;1.20;;
4698;SDS011;33708;49.466;11.176;2022-07-06T13:48:46;7.90;;;1.30;;
4698;SDS011;33708;49.466;11.176;2022-07-06T13:51:12;8.10;;;1.50;;
4698;SDS011;33708;49.466;11.176;2022-07-06T13:53:38;4.80;;;1.53;;
4698;SDS011;33708;49.466;11.176;2022-07-06T13:56:04;11.40;;;1.47;;
4698;SDS011;33708;49.466;11.176;2022-07-06T13:58:33;9.03;;;1.67;;
4698;SDS011;33708;49.466;11.176;2022-07-06T14:00:59;7.37;;;1.40;;
4698;SDS011;33708;49.466;11.176;2022-07-06T14:03:25;6.73;;;1.77;;
4698;SDS011;33708;49.466;11.176;2022-07-06T14:05:54;6.50;;;1.53;;
4698;SDS011;33708;49.466;11.176;2022-07-06T14:08:21;7.33;;;1.43;;
4698;SDS011;33708;49.466;11.176;2022-07-06T14:10:47;5.17;;;1.20;;
4698;SDS011;33708;49.466;11.176;2022-07-06T14:13:12;5.17;;;1.50;;
4698;SDS011;33708;49.466;11.176;2022-07-06T14:15:38;18.13;;;1.70;;
4698;SDS011;33708;49.466;11.176;2022-07-06T14:18:04;8.10;;;1.77;;
4698;SDS011;33708;49.466;11.176;2022-07-06T14:20:29;7.70;;;1.47;;
4698;SDS011;33708;49.466;11.176;2022-07-06T14:22:55;5.73;;;1.37;;
4698;SDS011;33708;49.466;11.176;2022-07-06T14:25:20;7.63;;;1.37;;
4698;SDS011;33708;49.466;11.176;2022-07-06T14:27:46;19.13;;;1.50;;
4698;SDS011;33708;49.466;11.176;2022-07-06T14:30:12;5.60;;;1.60;;
4698;SDS011;33708;49.466;11.176;2022-07-06T14:32:38;5.97;;;1.43;;
4698;SDS011;33708;49.466;11.176;2022-07-06T14:35:03;8.07;;;1.70;;
4698;SDS011;33708;49.466;11.176;2022-07-06T14:37:29;5.60;;;1.17;;
4698;SDS011;33708;49.466;11.176;2022-07-06T14:39:55;10.10;;;1.50;;
4698;SDS011;33708;49.466;11.176;2022-07-06T14:42:21;6.30;;;1.40;;
4698;SDS011;33708;49.466;11.176;2022-07-06T14:44:46;5.17;;;1.57;;
4698;SDS011;33708;49.466;11.176;2022-07-06T14:47:12;13.13;;;1.50;;
4698;SDS011;33708;49.466;11.176;2022-07-06T14:49:37;5.57;;;1.80;;
4698;SDS011;33708;49.466;11.176;2022-07-06T14:52:03;6.53;;;1.30;;
4698;SDS011;33708;49.466;11.176;2022-07-06T14:54:29;6.73;;;1.40;;
4698;SDS011;33708;49.466;11.176;2022-07-06T14:56:55;4.57;;;1.40;;
4698;SDS011;33708;49.466;11.176;2022-07-06T14:59:21;6.50;;;1.50;;